createdAt,value
2023-03-25T00:00:13.211Z,99630.72
2023-03-25T00:02:40.965Z,99635.94
2023-03-25T00:05:08.209Z,99637.72
2023-03-25T00:07:34.688Z,99632.50
2023-03-25T00:10:01.131Z,99629.81
2023-03-25T00:12:27.779Z,99618.47
2023-03-25T00:14:54.923Z,99620.34
2023-03-25T00:17:23.054Z,99618.53
2023-03-25T00:19:50.545Z,99615.84
2023-03-25T00:22:18.149Z,99604.50
2023-03-25T00:24:45.352Z,99608.91
2023-03-25T00:27:14.236Z,99610.66
2023-03-25T00:29:44.895Z,99608.06
2023-03-25T00:32:13.410Z,99602.78
2023-03-25T00:34:47.288Z,99605.44
2023-03-25T00:37:21.741Z,99606.38
2023-03-25T00:39:48.581Z,99602.84
2023-03-25T00:42:26.021Z,99602.78
2023-03-25T00:44:53.588Z,99601.03
2023-03-25T00:47:21.705Z,99603.72
2023-03-25T00:49:49.345Z,99601.03
2023-03-25T00:52:16.025Z,99598.47
2023-03-25T00:54:43.170Z,99595.84
2023-03-25T00:57:09.763Z,99592.34
2023-03-25T00:59:36.284Z,99599.25
2023-03-25T01:02:03.637Z,99598.34
2023-03-25T01:04:30.140Z,99596.69
2023-03-25T01:06:56.643Z,99598.47
2023-03-25T01:09:23.134Z,99595.69
2023-03-25T01:11:50.012Z,99603.63
2023-03-25T01:14:20.942Z,99590.63
2023-03-25T01:16:47.517Z,99603.63
2023-03-25T01:19:14.710Z,99595.84
2023-03-25T01:21:41.948Z,99604.59
2023-03-25T01:24:13.266Z,99598.47
2023-03-25T01:26:41.304Z,99599.31
2023-03-25T01:29:07.881Z,99594.94
2023-03-25T01:31:34.397Z,99605.41
2023-03-25T01:34:00.855Z,99600.22
2023-03-25T01:36:30.654Z,99594.94
2023-03-25T01:38:59.430Z,99596.69
2023-03-25T01:41:42.185Z,99608.00
2023-03-25T01:44:18.094Z,99600.16
2023-03-25T01:46:45.325Z,99601.06
2023-03-25T01:49:17.224Z,99599.38
2023-03-25T01:51:48.024Z,99598.47
2023-03-25T01:54:18.021Z,99595.00
2023-03-25T01:56:47.415Z,99599.38
2023-03-25T01:59:18.180Z,99595.94
2023-03-25T02:01:46.817Z,99589.91
2023-03-25T02:04:22.771Z,99595.13
2023-03-25T02:06:52.876Z,99586.44
2023-03-25T02:09:21.787Z,99597.75
2023-03-25T02:11:48.761Z,99584.75
2023-03-25T02:14:23.907Z,99580.38
2023-03-25T02:17:27.226Z,99578.66
2023-03-25T02:20:37.375Z,99583.97
2023-03-25T02:23:41.836Z,99586.56
2023-03-25T02:26:23.636Z,99589.19
2023-03-25T02:29:13.561Z,99584.91
2023-03-25T02:32:07.265Z,99592.00
2023-03-25T02:34:41.784Z,99586.78
2023-03-25T02:37:26.934Z,99589.41
2023-03-25T02:40:07.080Z,99586.91
2023-03-25T02:42:45.830Z,99581.75
2023-03-25T02:45:22.322Z,99586.97
2023-03-25T02:47:53.870Z,99593.00
2023-03-25T02:50:26.653Z,99590.50
2023-03-25T02:52:59.821Z,99588.78
2023-03-25T02:55:30.477Z,99591.44
2023-03-25T02:57:59.230Z,99584.59
2023-03-25T03:00:29.811Z,99597.66
2023-03-25T03:03:02.120Z,99584.66
2023-03-25T03:05:34.699Z,99585.50
2023-03-25T03:08:28.792Z,99576.88
2023-03-25T03:11:01.223Z,99577.72
2023-03-25T03:14:11.145Z,99564.72
2023-03-25T03:16:58.542Z,99571.66
2023-03-25T03:19:34.431Z,99571.72
2023-03-25T03:22:14.040Z,99577.78
2023-03-25T03:24:49.407Z,99570.00
2023-03-25T03:27:25.662Z,99572.56
2023-03-25T03:30:22.269Z,99569.09
2023-03-25T03:33:04.221Z,99575.22
2023-03-25T03:35:34.954Z,99575.22
2023-03-25T03:38:09.372Z,99579.59
2023-03-25T03:40:37.451Z,99572.63
2023-03-25T03:43:08.639Z,99558.69
2023-03-25T03:45:46.622Z,99568.19
2023-03-25T03:48:19.043Z,99570.75
2023-03-25T03:50:53.668Z,99580.28
2023-03-25T03:53:38.677Z,99580.34
2023-03-25T03:56:13.722Z,99585.63
2023-03-25T03:58:43.056Z,99589.13
2023-03-25T04:01:34.680Z,99586.53
2023-03-25T04:04:04.907Z,99586.66
2023-03-25T04:06:35.460Z,99585.84
2023-03-25T04:09:28.196Z,99589.41
2023-03-25T04:12:17.965Z,99586.88
2023-03-25T04:14:45.038Z,99582.59
2023-03-25T04:17:11.871Z,99582.59
2023-03-25T04:19:39.232Z,99572.13
2023-03-25T04:22:06.963Z,99566.00
2023-03-25T04:24:33.728Z,99573.81
2023-03-25T04:27:04.370Z,99579.03
2023-03-25T04:29:34.249Z,99572.91
2023-03-25T04:32:01.686Z,99588.56
2023-03-25T04:34:29.497Z,99592.03
2023-03-25T04:36:58.384Z,99580.56
2023-03-25T04:39:25.537Z,99574.44
2023-03-25T04:42:03.224Z,99579.72
2023-03-25T04:44:33.565Z,99578.00
2023-03-25T04:47:02.281Z,99584.94
2023-03-25T04:49:28.737Z,99589.25
2023-03-25T04:51:55.738Z,99584.03
2023-03-25T04:54:23.436Z,99583.19
2023-03-25T04:56:51.797Z,99577.97
2023-03-25T04:59:19.802Z,99579.63
2023-03-25T05:01:47.200Z,99575.22
2023-03-25T05:04:17.561Z,99582.09
2023-03-25T05:06:50.596Z,99578.69
2023-03-25T05:09:19.774Z,99575.13
2023-03-25T05:11:46.812Z,99573.69
2023-03-25T05:14:16.476Z,99577.28
2023-03-25T05:16:43.569Z,99573.16
2023-03-25T05:19:10.317Z,99576.75
2023-03-25T05:21:39.290Z,99584.88
2023-03-25T05:24:10.665Z,99579.81
2023-03-25T05:26:42.588Z,99578.97
2023-03-25T05:29:14.738Z,99587.75
2023-03-25T05:31:44.668Z,99592.97
2023-03-25T05:34:11.208Z,99594.78
2023-03-25T05:36:37.799Z,99594.00
2023-03-25T05:39:05.614Z,99582.81
2023-03-25T05:41:32.937Z,99582.81
2023-03-25T05:44:00.785Z,99593.19
2023-03-25T05:46:29.797Z,99593.13
2023-03-25T05:49:00.840Z,99591.34
2023-03-25T05:51:28.811Z,99588.72
2023-03-25T05:53:55.360Z,99580.81
2023-03-25T05:56:24.176Z,99582.53
2023-03-25T05:58:52.256Z,99579.81
2023-03-25T06:01:31.858Z,99597.22
2023-03-25T06:04:03.456Z,99588.44
2023-03-25T06:06:32.273Z,99585.81
2023-03-25T06:08:59.018Z,99594.41
2023-03-25T06:11:25.679Z,99585.72
2023-03-25T06:13:52.559Z,99596.97
2023-03-25T06:16:27.876Z,99594.28
2023-03-25T06:18:59.683Z,99602.06
2023-03-25T06:21:32.921Z,99610.75
2023-03-25T06:24:01.353Z,99602.13
2023-03-25T06:26:28.092Z,99589.09
2023-03-25T06:28:54.870Z,99599.63
2023-03-25T06:31:33.285Z,99609.22
2023-03-25T06:34:01.365Z,99593.66
2023-03-25T06:36:27.794Z,99588.69
2023-03-25T06:38:54.311Z,99593.19
2023-03-25T06:41:21.729Z,99595.91
2023-03-25T06:43:48.613Z,99590.91
2023-03-25T06:46:15.774Z,99606.66
2023-03-25T06:48:42.464Z,99605.91
2023-03-25T06:51:08.871Z,99625.06
2023-03-25T06:53:35.578Z,99605.94
2023-03-25T06:56:02.008Z,99606.84
2023-03-25T06:58:34.715Z,99606.84
2023-03-25T07:01:05.979Z,99610.31
2023-03-25T07:03:33.568Z,99613.81
2023-03-25T07:06:00.214Z,99603.38
2023-03-25T07:08:26.738Z,99612.03
2023-03-25T07:10:53.160Z,99599.78
2023-03-25T07:13:19.637Z,99606.75
2023-03-25T07:15:46.301Z,99598.88
2023-03-25T07:18:12.814Z,99600.53
2023-03-25T07:20:39.328Z,99591.59
2023-03-25T07:23:12.619Z,99603.66
2023-03-25T07:25:39.126Z,99610.50
2023-03-25T07:28:05.850Z,99605.22
2023-03-25T07:30:32.532Z,99619.88
2023-03-25T07:32:59.122Z,99623.22
2023-03-25T07:35:25.767Z,99620.50
2023-03-25T07:37:52.269Z,99628.22
2023-03-25T07:40:18.752Z,99624.59
2023-03-25T07:42:45.666Z,99629.72
2023-03-25T07:45:12.204Z,99631.44
2023-03-25T07:47:38.787Z,99622.72
2023-03-25T07:50:06.029Z,99638.31
2023-03-25T07:52:32.492Z,99634.81
2023-03-25T07:55:00.491Z,99642.59
2023-03-25T07:57:27.004Z,99639.88
2023-03-25T07:59:53.472Z,99642.47
2023-03-25T08:02:20.007Z,99627.72
2023-03-25T08:04:46.676Z,99638.97
2023-03-25T08:07:13.133Z,99645.09
2023-03-25T08:09:41.618Z,99638.19
2023-03-25T08:12:09.029Z,99650.31
2023-03-25T08:14:35.830Z,99659.06
2023-03-25T08:17:02.276Z,99658.09
2023-03-25T08:19:28.886Z,99675.34
2023-03-25T08:21:55.368Z,99664.78
2023-03-25T08:24:21.931Z,99675.94
2023-03-25T08:26:49.243Z,99676.78
2023-03-25T08:29:17.422Z,99671.34
2023-03-25T08:31:46.698Z,99667.69
2023-03-25T08:34:14.241Z,99675.53
2023-03-25T08:36:40.732Z,99672.00
2023-03-25T08:39:11.698Z,99657.25
2023-03-25T08:41:39.946Z,99663.28
2023-03-25T08:44:07.311Z,99667.53
2023-03-25T08:46:33.854Z,99660.47
2023-03-25T08:49:01.162Z,99667.38
2023-03-25T08:51:27.721Z,99661.28
2023-03-25T08:53:54.264Z,99657.81
2023-03-25T08:56:20.851Z,99662.06
2023-03-25T08:58:47.244Z,99676.66
2023-03-25T09:01:13.811Z,99666.91
2023-03-25T09:03:41.088Z,99662.34
2023-03-25T09:06:09.136Z,99667.41
2023-03-25T09:08:39.662Z,99662.03
2023-03-25T09:11:06.331Z,99668.81
2023-03-25T09:13:32.884Z,99663.56
2023-03-25T09:15:59.446Z,99666.25
2023-03-25T09:18:26.054Z,99669.63
2023-03-25T09:20:52.568Z,99671.41
2023-03-25T09:23:19.043Z,99681.97
2023-03-25T09:25:46.275Z,99668.00
2023-03-25T09:28:13.513Z,99668.81
2023-03-25T09:30:40.158Z,99665.22
2023-03-25T09:33:07.410Z,99666.81
2023-03-25T09:35:34.008Z,99659.78
2023-03-25T09:38:00.500Z,99662.34
2023-03-25T09:40:27.033Z,99671.03
2023-03-25T09:43:19.744Z,99665.88
2023-03-25T09:45:48.401Z,99668.38
2023-03-25T09:48:38.708Z,99670.03
2023-03-25T09:51:14.220Z,99683.94
2023-03-25T09:53:49.425Z,99678.63
2023-03-25T09:56:22.868Z,99679.50
2023-03-25T09:58:56.920Z,99679.38
2023-03-25T10:01:41.705Z,99679.38
2023-03-25T10:04:28.924Z,99687.09
2023-03-25T10:07:01.427Z,99682.59
2023-03-25T10:09:59.536Z,99686.91
2023-03-25T10:12:42.253Z,99693.78
2023-03-25T10:15:21.552Z,99686.72
2023-03-25T10:18:19.240Z,99685.66
2023-03-25T10:21:07.171Z,99693.53
2023-03-25T10:23:55.716Z,99684.69
2023-03-25T10:26:27.250Z,99699.22
2023-03-25T10:29:12.286Z,99691.03
2023-03-25T10:31:47.724Z,99682.00
2023-03-25T10:34:18.326Z,99693.81
2023-03-25T10:36:55.029Z,99687.91
2023-03-25T10:39:22.976Z,99692.28
2023-03-25T10:42:00.439Z,99693.22
2023-03-25T10:44:27.838Z,99689.22
2023-03-25T10:47:00.608Z,99689.47
2023-03-25T10:49:30.063Z,99699.00
2023-03-25T10:51:59.223Z,99691.84
2023-03-25T10:54:32.958Z,99695.31
2023-03-25T10:57:03.403Z,99688.28
2023-03-25T10:59:45.279Z,99685.09
2023-03-25T11:02:19.996Z,99706.81
2023-03-25T11:04:49.820Z,99693.00
2023-03-25T11:07:20.754Z,99694.97
2023-03-25T11:09:47.501Z,99684.38
2023-03-25T11:12:19.145Z,99680.63
2023-03-25T11:14:55.498Z,99683.19
2023-03-25T11:17:25.767Z,99689.06
2023-03-25T11:19:52.156Z,99674.94
2023-03-25T11:22:23.016Z,99671.47
2023-03-25T11:24:54.491Z,99680.34
2023-03-25T11:27:28.541Z,99678.75
2023-03-25T11:30:16.310Z,99675.13
2023-03-25T11:32:42.900Z,99681.31
2023-03-25T11:35:18.704Z,99675.41
2023-03-25T11:37:49.044Z,99690.34
2023-03-25T11:40:18.712Z,99685.34
2023-03-25T11:42:49.769Z,99687.09
2023-03-25T11:45:24.137Z,99685.28
2023-03-25T11:47:52.151Z,99693.47
2023-03-25T11:50:25.183Z,99703.41
2023-03-25T11:53:02.857Z,99696.13
2023-03-25T11:55:32.559Z,99700.56
2023-03-25T11:58:02.075Z,99695.59
2023-03-25T12:00:40.713Z,99724.88
2023-03-25T12:03:13.613Z,99707.75
2023-03-25T12:05:41.749Z,99714.97
2023-03-25T12:08:18.437Z,99729.97
2023-03-25T12:10:54.589Z,99733.34
2023-03-25T12:13:27.333Z,99740.69
2023-03-25T12:16:46.674Z,99744.56
2023-03-25T12:19:23.127Z,99745.25
2023-03-25T12:22:11.707Z,99760.38
2023-03-25T12:25:08.807Z,99728.31
2023-03-25T12:27:53.357Z,99706.31
2023-03-25T12:30:45.932Z,99713.06
2023-03-25T12:33:22.044Z,99712.09
2023-03-25T12:36:17.266Z,99704.44
2023-03-25T12:39:01.638Z,99691.34
2023-03-25T12:42:07.609Z,99687.88
2023-03-25T12:44:46.129Z,99686.78
2023-03-25T12:47:29.082Z,99706.25
2023-03-25T12:50:08.170Z,99687.16
2023-03-25T12:52:51.730Z,99682.84
2023-03-25T12:55:34.228Z,99684.38
2023-03-25T12:58:27.636Z,99690.38
2023-03-25T13:01:42.316Z,99691.16
2023-03-25T13:04:18.815Z,99691.31
2023-03-25T13:06:50.330Z,99703.84
2023-03-25T13:09:29.764Z,99719.06
2023-03-25T13:11:59.597Z,99711.56
2023-03-25T13:14:40.741Z,99727.28
2023-03-25T13:17:13.992Z,99696.41
2023-03-25T13:19:44.243Z,99705.56
2023-03-25T13:22:25.546Z,99731.69
2023-03-25T13:24:59.195Z,99726.41
2023-03-25T13:27:31.043Z,99727.66
2023-03-25T13:30:00.119Z,99738.69
2023-03-25T13:32:35.249Z,99756.56
2023-03-25T13:35:15.812Z,99756.53
2023-03-25T13:37:49.431Z,99741.13
2023-03-25T13:40:34.209Z,99751.78
2023-03-25T13:43:30.532Z,99733.59
2023-03-25T13:46:08.819Z,99713.22
2023-03-25T13:49:01.583Z,99713.75
2023-03-25T13:51:28.156Z,99723.03
2023-03-25T13:54:33.063Z,99703.75
2023-03-25T13:57:11.730Z,99704.31
2023-03-25T14:00:14.649Z,99692.94
2023-03-25T14:03:27.389Z,99710.63
2023-03-25T14:06:12.027Z,99699.31
2023-03-25T14:08:47.843Z,99702.16
2023-03-25T14:11:17.396Z,99700.59
2023-03-25T14:13:51.148Z,99720.13
2023-03-25T14:16:27.728Z,99726.69
2023-03-25T14:19:01.518Z,99704.47
2023-03-25T14:21:33.760Z,99715.75
2023-03-25T14:24:09.946Z,99713.97
2023-03-25T14:26:41.606Z,99726.38
2023-03-25T14:29:18.505Z,99716.16
2023-03-25T14:32:23.630Z,99721.50
2023-03-25T14:34:50.472Z,99722.91
2023-03-25T14:37:18.378Z,99727.06
2023-03-25T14:39:45.519Z,99705.44
2023-03-25T14:42:59.150Z,99708.19
2023-03-25T14:45:35.518Z,99714.91
2023-03-25T14:48:22.920Z,99716.94
2023-03-25T14:51:23.262Z,99711.97
2023-03-25T14:53:59.933Z,99697.50
2023-03-25T14:56:34.342Z,99702.31
2023-03-25T14:59:10.431Z,99706.31
2023-03-25T15:01:40.272Z,99698.78
2023-03-25T15:04:19.248Z,99703.38
2023-03-25T15:06:49.170Z,99696.53
2023-03-25T15:09:17.729Z,99716.63
2023-03-25T15:11:54.531Z,99716.72
2023-03-25T15:14:26.151Z,99703.63
2023-03-25T15:16:59.154Z,99718.47
2023-03-25T15:19:25.784Z,99711.53
2023-03-25T15:21:58.244Z,99730.91
2023-03-25T15:24:28.532Z,99760.09
2023-03-25T15:26:57.729Z,99742.13
2023-03-25T15:29:54.095Z,99738.03
2023-03-25T15:32:42.988Z,99732.94
2023-03-25T15:35:45.057Z,99727.19
2023-03-25T15:38:35.785Z,99728.34
2023-03-25T15:41:16.542Z,99731.94
2023-03-25T15:44:00.982Z,99718.94
2023-03-25T15:46:33.095Z,99722.13
2023-03-25T15:49:39.012Z,99719.88
2023-03-25T15:52:08.438Z,99717.16
2023-03-25T15:54:43.707Z,99716.28
2023-03-25T15:57:20.879Z,99712.00
2023-03-25T16:00:01.994Z,99714.53
2023-03-25T16:02:36.767Z,99716.25
2023-03-25T16:05:05.007Z,99710.00
2023-03-25T16:07:33.969Z,99711.72
2023-03-25T16:10:19.613Z,99733.47
2023-03-25T16:12:48.235Z,99720.47
2023-03-25T16:15:25.590Z,99715.19
2023-03-25T16:17:52.479Z,99705.59
2023-03-25T16:20:23.421Z,99724.56
2023-03-25T16:22:54.056Z,99722.00
2023-03-25T16:25:26.997Z,99728.88
2023-03-25T16:27:58.023Z,99734.88
2023-03-25T16:30:41.804Z,99729.66
2023-03-25T16:33:12.052Z,99724.38
2023-03-25T16:35:41.469Z,99723.38
2023-03-25T16:38:09.035Z,99736.25
2023-03-25T16:40:40.501Z,99732.72
2023-03-25T16:43:24.664Z,99734.31
2023-03-25T16:45:53.464Z,99740.34
2023-03-25T16:48:35.564Z,99741.00
2023-03-25T16:51:29.423Z,99763.69
2023-03-25T16:53:59.522Z,99754.25
2023-03-25T16:56:30.974Z,99767.50
2023-03-25T16:59:25.009Z,99768.63
2023-03-25T17:01:54.993Z,99768.84
2023-03-25T17:04:26.151Z,99790.72
2023-03-25T17:07:09.313Z,99768.28
2023-03-25T17:09:40.109Z,99759.69
2023-03-25T17:12:09.264Z,99761.56
2023-03-25T17:14:44.915Z,99772.16
2023-03-25T17:17:22.356Z,99766.94
2023-03-25T17:19:52.242Z,99762.69
2023-03-25T17:22:33.980Z,99769.59
2023-03-25T17:25:37.271Z,99775.63
2023-03-25T17:28:22.713Z,99777.34
2023-03-25T17:30:49.354Z,99777.25
2023-03-25T17:33:25.467Z,99798.81
2023-03-25T17:35:54.532Z,99796.16
2023-03-25T17:38:38.440Z,99792.69
2023-03-25T17:41:08.124Z,99793.59
2023-03-25T17:43:41.345Z,99813.75
2023-03-25T17:46:09.401Z,99813.91
2023-03-25T17:48:36.746Z,99829.72
2023-03-25T17:51:03.605Z,99836.78
2023-03-25T17:53:30.380Z,99851.69
2023-03-25T17:55:59.108Z,99850.81
2023-03-25T17:58:25.855Z,99849.19
2023-03-25T18:00:52.943Z,99853.50
2023-03-25T18:03:26.369Z,99851.75
2023-03-25T18:05:55.852Z,99856.09
2023-03-25T18:08:23.759Z,99864.78
2023-03-25T18:10:51.872Z,99863.94
2023-03-25T18:13:19.770Z,99848.28
2023-03-25T18:15:46.516Z,99858.72
2023-03-25T18:18:24.630Z,99860.47
2023-03-25T18:20:52.917Z,99874.31
2023-03-25T18:23:19.673Z,99864.69
2023-03-25T18:25:46.417Z,99861.97
2023-03-25T18:28:14.119Z,99861.94
2023-03-25T18:30:49.299Z,99863.69
2023-03-25T18:33:16.898Z,99869.66
2023-03-25T18:35:44.872Z,99874.97
2023-03-25T18:38:24.366Z,99881.91
2023-03-25T18:40:52.524Z,99873.22
2023-03-25T18:43:19.313Z,99878.44
2023-03-25T18:45:46.672Z,99885.50
2023-03-25T18:48:15.254Z,99889.00
2023-03-25T18:50:48.427Z,99896.03
2023-03-25T18:53:15.210Z,99901.34
2023-03-25T18:55:43.338Z,99894.47
2023-03-25T18:58:22.561Z,99891.94
2023-03-25T19:00:51.793Z,99895.50
2023-03-25T19:03:20.619Z,99900.75
2023-03-25T19:05:47.621Z,99899.13
2023-03-25T19:08:18.252Z,99899.16
2023-03-25T19:10:44.984Z,99900.94
2023-03-25T19:13:11.596Z,99894.84
2023-03-25T19:15:40.532Z,99894.03
2023-03-25T19:18:07.308Z,99881.94
2023-03-25T19:20:36.139Z,99882.84
2023-03-25T19:23:04.305Z,99874.16
2023-03-25T19:25:30.841Z,99874.19
2023-03-25T19:27:57.429Z,99877.72
2023-03-25T19:30:25.063Z,99865.56
2023-03-25T19:32:54.488Z,99861.25
2023-03-25T19:35:23.103Z,99876.81
2023-03-25T19:37:53.154Z,99874.19
2023-03-25T19:40:26.824Z,99880.28
2023-03-25T19:42:55.914Z,99884.66
2023-03-25T19:45:24.095Z,99878.63
2023-03-25T19:47:54.842Z,99883.72
2023-03-25T19:50:31.438Z,99880.25
2023-03-25T19:53:00.804Z,99880.31
2023-03-25T19:55:28.149Z,99887.25
2023-03-25T19:57:54.936Z,99883.72
2023-03-25T20:00:27.764Z,99886.28
2023-03-25T20:03:01.898Z,99888.78
2023-03-25T20:05:36.750Z,99882.63
2023-03-25T20:08:04.267Z,99880.84
2023-03-25T20:10:34.388Z,99888.63
2023-03-25T20:13:02.080Z,99887.72
2023-03-25T20:15:28.664Z,99892.06
2023-03-25T20:17:55.777Z,99887.53
2023-03-25T20:20:25.322Z,99876.13
2023-03-25T20:22:51.856Z,99874.44
2023-03-25T20:25:22.153Z,99879.59
2023-03-25T20:27:48.697Z,99880.25
2023-03-25T20:30:22.023Z,99889.78
2023-03-25T20:32:48.981Z,99907.03
2023-03-25T20:35:17.863Z,99927.72
2023-03-25T20:37:49.067Z,99924.22
2023-03-25T20:40:19.748Z,99917.22
2023-03-25T20:42:50.011Z,99918.28
2023-03-25T20:45:20.294Z,99902.81
2023-03-25T20:47:50.344Z,99906.47
2023-03-25T20:50:17.382Z,99899.63
2023-03-25T20:52:45.272Z,99907.53
2023-03-25T20:55:13.845Z,99914.53
2023-03-25T20:57:41.705Z,99907.66
2023-03-25T21:00:18.063Z,99912.03
2023-03-25T21:02:47.168Z,99909.44
2023-03-25T21:05:15.300Z,99924.22
2023-03-25T21:07:46.761Z,99919.84
2023-03-25T21:10:13.999Z,99924.13
2023-03-25T21:12:44.387Z,99916.22
2023-03-25T21:15:14.960Z,99922.13
2023-03-25T21:17:42.559Z,99919.47
2023-03-25T21:20:13.395Z,99906.50
2023-03-25T21:22:45.006Z,99911.69
2023-03-25T21:25:14.394Z,99916.91
2023-03-25T21:27:47.765Z,99916.97
2023-03-25T21:30:15.206Z,99910.84
2023-03-25T21:32:42.035Z,99912.59
2023-03-25T21:35:10.028Z,99909.88
2023-03-25T21:37:41.008Z,99922.13
2023-03-25T21:40:10.878Z,99918.66
2023-03-25T21:42:41.906Z,99925.59
2023-03-25T21:45:11.133Z,99932.59
2023-03-25T21:47:37.705Z,99938.72
2023-03-25T21:50:11.592Z,99942.22
2023-03-25T21:52:43.728Z,99945.72
2023-03-25T21:55:11.111Z,99959.38
2023-03-25T21:57:40.438Z,99950.22
2023-03-25T22:00:08.170Z,99946.97
2023-03-25T22:02:35.036Z,99940.97
2023-03-25T22:05:01.681Z,99940.25
2023-03-25T22:07:34.205Z,99934.22
2023-03-25T22:10:10.653Z,99972.56
2023-03-25T22:12:37.158Z,99966.72
2023-03-25T22:15:04.009Z,99944.28
2023-03-25T22:17:30.638Z,99950.41
2023-03-25T22:19:57.347Z,99937.41
2023-03-25T22:22:24.008Z,99966.94
2023-03-25T22:24:50.603Z,99965.63
2023-03-25T22:27:17.163Z,99979.41
2023-03-25T22:29:43.640Z,99987.34
2023-03-25T22:32:10.695Z,99976.91
2023-03-25T22:34:37.880Z,99977.69
2023-03-25T22:37:04.499Z,99977.69
2023-03-25T22:39:31.031Z,99962.88
2023-03-25T22:41:57.905Z,99955.88
2023-03-25T22:44:25.030Z,99954.88
2023-03-25T22:46:51.665Z,99947.03
2023-03-25T22:49:18.781Z,99946.13
2023-03-25T22:51:45.496Z,99946.13
2023-03-25T22:54:12.096Z,99952.97
2023-03-25T22:56:38.755Z,99940.84
2023-03-25T22:59:07.113Z,99937.31
2023-03-25T23:01:36.045Z,99926.94
2023-03-25T23:04:02.813Z,99923.44
2023-03-25T23:06:29.954Z,99930.41
2023-03-25T23:08:57.549Z,99939.97
2023-03-25T23:11:27.445Z,99938.22
2023-03-25T23:13:57.032Z,99935.63
2023-03-25T23:16:26.665Z,99941.69
2023-03-25T23:18:53.457Z,99941.69
2023-03-25T23:21:25.509Z,99945.13
2023-03-25T23:23:54.046Z,99946.81
2023-03-25T23:26:41.236Z,99950.25
2023-03-25T23:29:10.422Z,99951.09
2023-03-25T23:31:41.140Z,99950.16
2023-03-25T23:34:10.749Z,99951.16
2023-03-25T23:36:38.355Z,99946.78
2023-03-25T23:39:07.617Z,99946.72
2023-03-25T23:41:35.003Z,99944.97
2023-03-25T23:44:01.831Z,99944.09
2023-03-25T23:46:29.161Z,99951.06
2023-03-25T23:48:55.820Z,99950.16
2023-03-25T23:51:24.800Z,99951.94
2023-03-25T23:53:52.720Z,99955.38
2023-03-25T23:56:22.397Z,99961.47
2023-03-25T23:58:49.696Z,99958.88
